Dousman, WI

8:06 PM CDT on September 19, 2014 (GMT -0500)
Burlington | Change Station
CLOSE
Current Station
Airport
Location: Burlington,
Elevation: 778 ft
Nearby Weather Stations

Elev 778 ft 42.69 °N, 88.31 °W | Updated 11 minutes ago

Clear
Clear
62 °F
Feels Like 62 °F
N
7
Wind Variable Wind from South

Today
High -- | Low -- °F
--% Chance of Precip.
Yesterday
High -- | Low -- °F
Precip. -- in
6:37 AM 6:56 PM
Waning Crescent, 16% visible
Pressure 29.93 in
Visibility 10.0 miles
Clouds Clear
Dew Point 47 °F
Humidity 58%
Rainfall 0.00 in
Snow Depth Not available.
UV 0 out of 12
Pollen 4.40 out of 12
Air Quality Not available.
Flu Activity Not available.
METAR KBUU 200055Z AUTO 18006KT 10SM CLR 17/09 A2993 RMK AO2 T01670085

More Conditions Fewer Conditions

Pressure 29.93 in
Visibility 10.0 miles
Clouds Clear
Dew Point 47 °F
Humidity 58%
Rainfall 0.00 in
Snow Depth Not available.
UV 0 out of 12
Pollen 4.40 out of 12
Air Quality Not available.
Flu Activity Not available.
METAR KBUU 200055Z AUTO 18006KT 10SM CLR 17/09 A2993 RMK AO2 T01670085

More Conditions Fewer Conditions

10-Day Weather Forecast

Almanac

Astronomy

Sep. 19, 2014 Rise Set
Actual Time 6:37 AM CDT 6:56 PM CDT
Civil Twilight 6:09 AM CDT 7:24 PM CDT
Nautical Twilight 5:36 AM CDT 7:58 PM CDT
Astronomical Twilight 5:01 AM CDT 8:32 PM CDT
Moon 2:17 AM CDT (9/19) 4:29 PM CDT (9/19)
Length of Visible Light 13h 15m
Length of Day
12h 18m
Tomorrow will be 2m 53s shorter.
Waning Crescent, 16% of the Moon is Illuminated
Today
Waning Crescent
Sep 24
New
Oct 1
First Quarter
Oct 8
Full
Oct 15
Last Quarter

Today's Extremes

State Highs State Lows

Community

WunderPhotos

Upload Photos

1,754,756 photos uploaded!

WunderBlogs® & News

Nearby

Snow Depth

Station Depth Elevation
No new snow has been reported.

Earthquake Activity

City Distance Mag. Time & Date
No recent earthquake activity has been reported nearby.
Minimum magnitude displayed is 2.5.

Coastal Water Temperatures

Place Temperature
No Stations Reporting

Nearby Weather Stations